Time,TemperatureF,DewpointF,PressureIn,WindDirection,WindDirectionDegrees,WindSpeedMPH,WindSpeedGustMPH,Humidity,HourlyPrecipIn,Conditions,Clouds,dailyrainin,SoftwareType,DateUTC
2013-04-02 00:00:00,37.1,20.6,29.84,NNW,329,4.0,8.0,51,0.00,,,0.01,Wunderground v.1.15,2013-04-02 04:00:00,
2013-04-02 00:05:00,37.0,21.0,29.84,West,266,6.0,8.0,52,0.00,,,0.00,Wunderground v.1.15,2013-04-02 04:05:00,
2013-04-02 00:10:00,36.9,20.9,29.85,WNW,300,5.0,5.0,52,0.00,,,0.00,Wunderground v.1.15,2013-04-02 04:10:00,
2013-04-02 00:15:00,36.8,21.3,29.85,ESE,103,4.0,5.0,53,0.00,,,0.00,Wunderground v.1.15,2013-04-02 04:15:00,
2013-04-02 08:26:00,35.9,19.5,29.94,WSW,243,6.0,16.0,51,0.00,,,0.00,Wunderground v.1.15,2013-04-02 12:26:00,
2013-04-02 08:35:00,35.8,19.0,29.94,West,278,10.0,10.0,50,0.00,,,0.00,Wunderground v.1.15,2013-04-02 12:35:00,
2013-04-02 08:40:00,35.8,19.0,29.94,West,262,10.0,10.0,50,0.00,,,0.00,Wunderground v.1.15,2013-04-02 12:40:00,
2013-04-02 08:45:00,35.7,17.4,29.94,West,274,10.0,19.0,47,0.00,,,0.00,Wunderground v.1.15,2013-04-02 12:45:00,
2013-04-02 08:50:00,35.9,19.5,29.95,West,278,10.0,19.0,51,0.00,,,0.00,Wunderground v.1.15,2013-04-02 12:50:00,
2013-04-02 09:00:00,36.1,19.7,29.95,West,259,10.0,10.0,51,0.00,,,0.00,Wunderground v.1.15,2013-04-02 13:00:00,
2013-04-02 09:05:00,36.2,18.9,29.95,WSW,252,9.0,10.0,49,0.00,,,0.00,Wunderground v.1.15,2013-04-02 13:05:00,
2013-04-02 09:10:00,36.3,18.5,29.94,West,264,9.0,9.0,48,0.00,,,0.00,Wunderground v.1.15,2013-04-02 13:10:00,
2013-04-02 09:15:00,36.2,17.9,29.94,West,267,9.0,9.0,47,0.00,,,0.00,Wunderground v.1.15,2013-04-02 13:15:00,
2013-04-02 09:20:00,36.2,17.9,29.94,West,270,10.0,12.0,47,0.00,,,0.00,Wunderground v.1.15,2013-04-02 13:20:00,
2013-04-02 09:30:00,36.4,18.1,29.95,WNW,283,10.0,10.0,47,0.00,,,0.00,Wunderground v.1.15,2013-04-02 13:30:00,
2013-04-02 09:35:00,36.8,17.9,29.95,West,266,8.0,10.0,46,0.00,,,0.00,Wunderground v.1.15,2013-04-02 13:35:00,
2013-04-02 09:40:00,36.6,17.2,29.94,WNW,294,9.0,9.0,45,0.00,,,0.00,Wunderground v.1.15,2013-04-02 13:40:00,
2013-04-02 09:45:00,36.6,16.7,29.94,WNW,290,10.0,10.0,44,0.00,,,0.00,Wunderground v.1.15,2013-04-02 13:45:00,
2013-04-02 09:55:00,36.4,17.1,29.94,WNW,283,11.0,16.0,45,0.00,,,0.00,Wunderground v.1.15,2013-04-02 13:55:00,
2013-04-02 10:00:00,37.1,18.7,29.94,WSW,246,9.0,9.0,47,0.00,,,0.00,Wunderground v.1.15,2013-04-02 14:00:00,
2013-04-02 10:05:00,37.3,17.9,29.94,WSW,252,7.0,9.0,45,0.00,,,0.00,Wunderground v.1.15,2013-04-02 14:05:00,
2013-04-02 10:10:00,37.4,18.5,29.94,WSW,243,8.0,11.0,46,0.00,,,0.00,Wunderground v.1.15,2013-04-02 14:10:00,
2013-04-02 10:15:00,37.4,17.4,29.94,NW,310,10.0,11.0,44,0.00,,,0.00,Wunderground v.1.15,2013-04-02 14:15:00,
2013-04-02 10:20:00,37.4,16.9,29.94,West,281,9.0,9.0,43,0.00,,,0.00,Wunderground v.1.15,2013-04-02 14:20:00,
2013-04-02 10:25:00,37.3,16.3,29.94,West,278,8.0,9.0,42,0.00,,,0.00,Wunderground v.1.15,2013-04-02 14:25:00,
2013-04-02 10:30:00,37.0,17.1,29.94,WNW,287,9.0,9.0,44,0.00,,,0.00,Wunderground v.1.15,2013-04-02 14:30:00,
2013-04-02 10:40:00,37.6,18.2,29.94,WSW,240,10.0,10.0,45,0.00,,,0.00,Wunderground v.1.15,2013-04-02 14:40:00,
2013-04-02 10:45:00,38.1,17.0,29.94,West,266,10.0,10.0,42,0.00,,,0.00,Wunderground v.1.15,2013-04-02 14:45:00,
2013-04-02 10:55:00,38.0,15.2,29.94,WSW,243,9.0,10.0,39,0.00,,,0.00,Wunderground v.1.15,2013-04-02 14:55:00,
2013-04-02 11:00:00,38.1,17.0,29.93,West,262,9.0,11.0,42,0.00,,,0.00,Wunderground v.1.15,2013-04-02 15:00:00,
2013-04-02 11:05:00,38.5,16.8,29.93,West,280,9.0,11.0,41,0.00,,,0.00,Wunderground v.1.15,2013-04-02 15:05:00,
2013-04-02 11:10:00,38.6,15.7,29.93,WSW,238,9.0,9.0,39,0.00,,,0.00,Wunderground v.1.15,2013-04-02 15:10:00,
2013-04-02 11:15:00,39.2,17.4,29.93,SSE,155,9.0,9.0,41,0.00,,,0.00,Wunderground v.1.15,2013-04-02 15:15:00,
2013-04-02 11:20:00,38.9,16.0,29.93,WSW,243,9.0,12.0,39,0.00,,,0.00,Wunderground v.1.15,2013-04-02 15:20:00,
2013-04-02 11:25:00,38.8,16.5,29.93,West,281,9.0,12.0,40,0.00,,,0.00,Wunderground v.1.15,2013-04-02 15:25:00,
2013-04-02 11:35:00,39.0,14.9,29.93,West,274,9.0,9.0,37,0.00,,,0.00,Wunderground v.1.15,2013-04-02 15:35:00,
2013-04-02 11:40:00,39.6,16.6,29.92,West,278,9.0,12.0,39,0.00,,,0.00,Wunderground v.1.15,2013-04-02 15:40:00,
2013-04-02 11:45:00,39.3,15.2,29.92,WNW,283,9.0,12.0,37,0.00,,,0.00,Wunderground v.1.15,2013-04-02 15:45:00,
2013-04-02 11:55:00,39.6,14.8,29.92,West,269,11.0,11.0,36,0.00,,,0.00,Wunderground v.1.15,2013-04-02 15:55:00,
2013-04-02 12:00:00,39.8,16.2,29.92,WNW,286,10.0,10.0,38,0.00,,,0.00,Wunderground v.1.15,2013-04-02 16:00:00,
2013-04-02 12:05:00,39.5,15.3,29.92,WNW,287,9.0,10.0,37,0.00,,,0.00,Wunderground v.1.15,2013-04-02 16:05:00,
2013-04-02 12:10:00,39.3,15.2,29.91,WSW,257,9.0,9.0,37,0.00,,,0.00,Wunderground v.1.15,2013-04-02 16:10:00,
2013-04-02 12:15:00,39.5,14.7,29.91,WNW,297,9.0,12.0,36,0.00,,,0.00,Wunderground v.1.15,2013-04-02 16:15:00,
2013-04-02 12:20:00,40.0,16.4,29.91,WSW,243,10.0,10.0,38,0.00,,,0.00,Wunderground v.1.15,2013-04-02 16:20:00,
2013-04-02 12:25:00,40.8,15.9,29.91,WNW,300,9.0,11.0,36,0.00,,,0.00,Wunderground v.1.15,2013-04-02 16:25:00,
2013-04-02 12:30:00,40.7,15.8,29.91,West,262,9.0,15.0,36,0.00,,,0.00,Wunderground v.1.15,2013-04-02 16:30:00,
2013-04-02 12:40:00,40.7,16.4,29.91,WSW,243,12.0,12.0,37,0.00,,,0.00,Wunderground v.1.15,2013-04-02 16:40:00,
2013-04-02 12:45:00,41.0,16.0,29.91,West,278,11.0,12.0,36,0.00,,,0.00,Wunderground v.1.15,2013-04-02 16:45:00,
2013-04-02 12:50:00,41.0,15.4,29.91,NW,325,11.0,11.0,35,0.00,,,0.00,Wunderground v.1.15,2013-04-02 16:50:00,
2013-04-02 13:00:00,41.5,17.1,29.90,WNW,295,9.0,9.0,37,0.00,,,0.00,Wunderground v.1.15,2013-04-02 17:00:00,
2013-04-02 13:05:00,40.8,15.9,29.90,WSW,256,10.0,10.0,36,0.00,,,0.00,Wunderground v.1.15,2013-04-02 17:05:00,
2013-04-02 13:15:00,40.6,15.0,29.90,West,274,10.0,13.0,35,0.00,,,0.00,Wunderground v.1.15,2013-04-02 17:15:00,
2013-04-02 13:20:00,40.3,14.1,29.90,West,271,11.0,11.0,34,0.00,,,0.00,Wunderground v.1.15,2013-04-02 17:20:00,
2013-04-02 13:25:00,40.0,14.5,29.90,SW,218,12.0,12.0,35,0.00,,,0.00,Wunderground v.1.15,2013-04-02 17:25:00,
2013-04-02 13:30:00,40.5,13.6,29.90,WSW,253,13.0,18.0,33,0.00,,,0.00,Wunderground v.1.15,2013-04-02 17:30:00,
2013-04-02 13:35:00,40.7,13.8,29.89,NW,314,16.0,18.0,33,0.00,,,0.00,Wunderground v.1.15,2013-04-02 17:35:00,
2013-04-02 13:40:00,40.5,13.6,29.90,SW,231,14.0,14.0,33,0.00,,,0.00,Wunderground v.1.15,2013-04-02 17:40:00,
2013-04-02 13:45:00,41.1,14.1,29.89,WNW,285,12.0,14.0,33,0.00,,,0.00,Wunderground v.1.15,2013-04-02 17:45:00,
2013-04-02 13:55:00,40.6,14.4,29.89,WSW,249,11.0,17.0,34,0.00,,,0.00,Wunderground v.1.15,2013-04-02 17:55:00,
2013-04-02 14:00:00,41.7,15.4,29.89,SW,228,9.0,9.0,34,0.00,,,0.00,Wunderground v.1.15,2013-04-02 18:00:00,
2013-04-02 14:10:00,41.1,14.8,29.89,WSW,243,10.0,10.0,34,0.00,,,0.00,Wunderground v.1.15,2013-04-02 18:10:00,
2013-04-02 14:15:00,40.9,14.0,29.89,West,274,10.0,10.0,33,0.00,,,0.00,Wunderground v.1.15,2013-04-02 18:15:00,
2013-04-02 14:20:00,41.5,13.1,29.88,WNW,286,11.0,23.0,31,0.00,,,0.00,Wunderground v.1.15,2013-04-02 18:20:00,
2013-04-02 14:25:00,41.6,12.4,29.89,WNW,291,12.0,23.0,30,0.00,,,0.00,Wunderground v.1.15,2013-04-02 18:25:00,
2013-04-02 14:30:00,41.6,12.4,29.89,WSW,256,14.0,15.0,30,0.00,,,0.00,Wunderground v.1.15,2013-04-02 18:30:00,
2013-04-02 14:35:00,41.4,13.0,29.89,WNW,303,15.0,15.0,31,0.00,,,0.00,Wunderground v.1.15,2013-04-02 18:35:00,
2013-04-02 14:40:00,41.2,12.8,29.88,WNW,290,14.0,17.0,31,0.00,,,0.00,Wunderground v.1.15,2013-04-02 18:40:00,
2013-04-02 14:45:00,41.6,13.9,29.88,WNW,291,12.0,17.0,32,0.00,,,0.00,Wunderground v.1.15,2013-04-02 18:45:00,
2013-04-02 14:50:00,41.8,12.6,29.88,WNW,285,13.0,14.0,30,0.00,,,0.00,Wunderground v.1.15,2013-04-02 18:50:00,
2013-04-02 14:55:00,41.3,12.1,29.88,WNW,300,13.0,14.0,30,0.00,,,0.00,Wunderground v.1.15,2013-04-02 18:55:00,
2013-04-02 15:00:00,41.3,12.9,29.88,WNW,284,13.0,25.0,31,0.00,,,0.00,Wunderground v.1.15,2013-04-02 19:00:00,
2013-04-02 15:05:00,41.3,12.9,29.88,West,277,14.0,25.0,31,0.00,,,0.00,Wunderground v.1.15,2013-04-02 19:05:00,
2013-04-02 15:10:00,41.7,12.5,29.88,West,259,14.0,14.0,30,0.00,,,0.00,Wunderground v.1.15,2013-04-02 19:10:00,
2013-04-02 15:15:00,42.5,13.9,29.88,WSW,240,14.0,14.0,31,0.00,,,0.00,Wunderground v.1.15,2013-04-02 19:15:00,
2013-04-02 15:20:00,42.7,12.6,29.88,WNW,302,13.0,13.0,29,0.00,,,0.00,Wunderground v.1.15,2013-04-02 19:20:00,
2013-04-02 15:25:00,42.3,12.3,29.87,West,280,13.0,17.0,29,0.00,,,0.00,Wunderground v.1.15,2013-04-02 19:25:00,
2013-04-02 15:30:00,42.6,14.8,29.88,NNW,338,13.0,13.0,32,0.00,,,0.00,Wunderground v.1.15,2013-04-02 19:30:00,
2013-04-02 15:35:00,43.4,12.4,29.88,WNW,301,11.0,13.0,28,0.00,,,0.00,Wunderground v.1.15,2013-04-02 19:35:00,
2013-04-02 15:40:00,43.0,12.1,29.88,WSW,255,10.0,18.0,28,0.00,,,0.00,Wunderground v.1.15,2013-04-02 19:40:00,
2013-04-02 15:45:00,42.6,10.9,29.88,West,274,12.0,18.0,27,0.00,,,0.00,Wunderground v.1.15,2013-04-02 19:45:00,
2013-04-02 15:50:00,42.9,12.0,29.87,West,276,12.0,12.0,28,0.00,,,0.00,Wunderground v.1.15,2013-04-02 19:50:00,
2013-04-02 15:55:00,43.3,13.1,29.88,West,267,11.0,12.0,29,0.00,,,0.00,Wunderground v.1.15,2013-04-02 19:55:00,
2013-04-02 16:05:00,42.8,11.9,29.88,NW,315,11.0,16.0,28,0.00,,,0.00,Wunderground v.1.15,2013-04-02 20:05:00,
2013-04-02 16:10:00,42.8,11.9,29.88,SSW,201,12.0,12.0,28,0.00,,,0.00,Wunderground v.1.15,2013-04-02 20:10:00,
2013-04-02 16:15:00,42.6,11.7,29.88,NW,308,12.0,18.0,28,0.00,,,0.00,Wunderground v.1.15,2013-04-02 20:15:00,
2013-04-02 16:25:00,42.5,10.8,29.88,West,276,13.0,16.0,27,0.00,,,0.00,Wunderground v.1.15,2013-04-02 20:25:00,
2013-04-02 16:30:00,42.4,11.5,29.88,WSW,250,12.0,13.0,28,0.00,,,0.00,Wunderground v.1.15,2013-04-02 20:30:00,
2013-04-02 16:40:00,42.4,10.7,29.88,NE,54,11.0,11.0,27,0.00,,,0.00,Wunderground v.1.15,2013-04-02 20:40:00,
2013-04-02 16:45:00,43.1,12.2,29.88,West,267,9.0,13.0,28,0.00,,,0.00,Wunderground v.1.15,2013-04-02 20:45:00,
2013-04-02 16:55:00,42.1,10.5,29.89,WNW,297,14.0,18.0,27,0.00,,,0.00,Wunderground v.1.15,2013-04-02 20:55:00,
2013-04-02 17:00:00,42.1,11.3,29.89,WNW,300,13.0,13.0,28,0.00,,,0.00,Wunderground v.1.15,2013-04-02 21:00:00,
2013-04-02 17:05:00,42.2,10.6,29.89,WSW,243,12.0,13.0,27,0.00,,,0.00,Wunderground v.1.15,2013-04-02 21:05:00,
2013-04-02 17:10:00,42.4,10.7,29.89,WSW,253,12.0,12.0,27,0.00,,,0.00,Wunderground v.1.15,2013-04-02 21:10:00,
2013-04-02 17:20:00,42.1,10.5,29.90,West,278,15.0,21.0,27,0.00,,,0.00,Wunderground v.1.15,2013-04-02 21:20:00,
2013-04-02 17:25:00,42.0,10.4,29.90,West,264,15.0,21.0,27,0.00,,,0.00,Wunderground v.1.15,2013-04-02 21:25:00,
2013-04-02 17:30:00,42.2,11.4,29.90,SSW,207,13.0,13.0,28,0.00,,,0.00,Wunderground v.1.15,2013-04-02 21:30:00,
2013-04-02 17:35:00,42.2,10.6,29.91,West,267,12.0,13.0,27,0.00,,,0.00,Wunderground v.1.15,2013-04-02 21:35:00,
2013-04-02 17:40:00,42.2,9.7,29.91,WNW,301,12.0,12.0,26,0.00,,,0.00,Wunderground v.1.15,2013-04-02 21:40:00,
2013-04-02 17:45:00,42.3,9.8,29.91,WNW,284,11.0,12.0,26,0.00,,,0.00,Wunderground v.1.15,2013-04-02 21:45:00,
2013-04-02 17:50:00,42.4,10.7,29.91,West,263,9.0,12.0,27,0.00,,,0.00,Wunderground v.1.15,2013-04-02 21:50:00,
2013-04-02 17:55:00,42.3,10.6,29.91,West,278,9.0,12.0,27,0.00,,,0.00,Wunderground v.1.15,2013-04-02 21:55:00,
2013-04-02 18:00:00,42.2,10.6,29.91,West,276,10.0,16.0,27,0.00,,,0.00,Wunderground v.1.15,2013-04-02 22:00:00,
2013-04-02 18:05:00,41.8,11.0,29.92,West,281,11.0,17.0,28,0.00,,,0.00,Wunderground v.1.15,2013-04-02 22:05:00,
2013-04-02 18:10:00,41.8,12.6,29.92,West,276,11.0,14.0,30,0.00,,,0.00,Wunderground v.1.15,2013-04-02 22:10:00,
2013-04-02 18:15:00,41.7,11.7,29.92,NW,321,10.0,14.0,29,0.00,,,0.00,Wunderground v.1.15,2013-04-02 22:15:00,
2013-04-02 18:20:00,41.8,11.8,29.92,West,277,9.0,14.0,29,0.00,,,0.00,Wunderground v.1.15,2013-04-02 22:20:00,
2013-04-02 18:25:00,41.7,10.9,29.92,WNW,297,9.0,14.0,28,0.00,,,0.00,Wunderground v.1.15,2013-04-02 22:25:00,
2013-04-02 18:35:00,41.6,11.6,29.92,WNW,294,11.0,14.0,29,0.00,,,0.00,Wunderground v.1.15,2013-04-02 22:35:00,
2013-04-02 18:40:00,41.5,11.6,29.93,West,267,12.0,12.0,29,0.00,,,0.00,Wunderground v.1.15,2013-04-02 22:40:00,
2013-04-02 18:45:00,41.2,11.3,29.93,WNW,283,13.0,13.0,29,0.00,,,0.00,Wunderground v.1.15,2013-04-02 22:45:00,
2013-04-02 18:50:00,40.8,11.7,29.93,WNW,293,11.0,18.0,30,0.00,,,0.00,Wunderground v.1.15,2013-04-02 22:50:00,
2013-04-02 19:05:00,40.0,12.5,29.94,WSW,257,8.0,11.0,32,0.00,,,0.00,Wunderground v.1.15,2013-04-02 23:05:00,
2013-04-02 19:10:00,39.9,13.1,29.94,WNW,290,8.0,8.0,33,0.00,,,0.00,Wunderground v.1.15,2013-04-02 23:10:00,
2013-04-02 19:15:00,39.7,12.9,29.94,West,269,8.0,8.0,33,0.00,,,0.00,Wunderground v.1.15,2013-04-02 23:15:00,
2013-04-02 19:20:00,39.7,12.9,29.95,WSW,253,8.0,8.0,33,0.00,,,0.00,Wunderground v.1.15,2013-04-02 23:20:00,
2013-04-02 19:25:00,39.7,11.5,29.95,WNW,302,8.0,10.0,31,0.00,,,0.00,Wunderground v.1.15,2013-04-02 23:25:00,
2013-04-02 19:35:00,39.6,11.4,29.95,West,277,10.0,13.0,31,0.00,,,0.00,Wunderground v.1.15,2013-04-02 23:35:00,
2013-04-02 19:40:00,39.5,12.7,29.95,West,273,8.0,16.0,33,0.00,,,0.00,Wunderground v.1.15,2013-04-02 23:40:00,
2013-04-02 19:45:00,39.5,12.7,29.96,West,280,8.0,16.0,33,0.00,,,0.00,Wunderground v.1.15,2013-04-02 23:45:00,
2013-04-02 19:50:00,39.4,12.6,29.96,WNW,297,9.0,9.0,33,0.00,,,0.00,Wunderground v.1.15,2013-04-02 23:50:00,
2013-04-02 19:55:00,39.2,12.5,29.96,WNW,293,7.0,10.0,33,0.00,,,0.00,Wunderground v.1.15,2013-04-02 23:55:00,
2013-04-02 20:00:00,39.2,12.5,29.97,West,277,6.0,7.0,33,0.00,,,0.00,Wunderground v.1.15,2013-04-03 00:00:00,
2013-04-02 20:05:00,39.1,12.4,29.97,WNW,288,6.0,7.0,33,0.00,,,0.00,Wunderground v.1.15,2013-04-03 00:05:00,
2013-04-02 20:10:00,39.1,12.4,29.97,WNW,288,6.0,6.0,33,0.00,,,0.00,Wunderground v.1.15,2013-04-03 00:10:00,
2013-04-02 20:15:00,39.0,13.0,29.97,West,281,7.0,7.0,34,0.00,,,0.00,Wunderground v.1.15,2013-04-03 00:15:00,
2013-04-02 20:20:00,39.0,12.3,29.98,West,276,8.0,8.0,33,0.00,,,0.00,Wunderground v.1.15,2013-04-03 00:20:00,
2013-04-02 20:25:00,39.0,13.0,29.98,West,274,8.0,8.0,34,0.00,,,0.00,Wunderground v.1.15,2013-04-03 00:25:00,
2013-04-02 20:30:00,38.8,12.8,29.98,West,264,6.0,6.0,34,0.00,,,0.00,Wunderground v.1.15,2013-04-03 00:30:00,
2013-04-02 20:35:00,38.8,12.8,29.98,WNW,300,6.0,8.0,34,0.00,,,0.00,Wunderground v.1.15,2013-04-03 00:35:00,
2013-04-02 20:50:00,38.7,12.7,29.99,North,350,7.0,8.0,34,0.00,,,0.00,Wunderground v.1.15,2013-04-03 00:50:00,
2013-04-02 20:55:00,38.7,12.7,29.99,West,262,7.0,8.0,34,0.00,,,0.00,Wunderground v.1.15,2013-04-03 00:55:00,
2013-04-02 21:00:00,38.7,12.7,30.00,WNW,300,8.0,8.0,34,0.00,,,0.00,Wunderground v.1.15,2013-04-03 01:00:00,
2013-04-02 21:05:00,38.6,12.6,30.00,WNW,283,8.0,10.0,34,0.00,,,0.00,Wunderground v.1.15,2013-04-03 01:05:00,
2013-04-02 21:10:00,38.5,12.5,30.00,West,263,8.0,16.0,34,0.00,,,0.00,Wunderground v.1.15,2013-04-03 01:10:00,
2013-04-02 21:15:00,38.4,13.1,30.00,West,262,8.0,16.0,35,0.00,,,0.00,Wunderground v.1.15,2013-04-03 01:15:00,
2013-04-02 21:20:00,38.4,13.1,30.00,WNW,284,7.0,10.0,35,0.00,,,0.00,Wunderground v.1.15,2013-04-03 01:20:00,
2013-04-02 21:25:00,38.4,13.1,30.00,West,281,7.0,10.0,35,0.00,,,0.00,Wunderground v.1.15,2013-04-03 01:25:00,
2013-04-02 21:30:00,38.2,13.6,30.00,WNW,285,7.0,7.0,36,0.00,,,0.00,Wunderground v.1.15,2013-04-03 01:30:00,
2013-04-02 21:35:00,38.2,13.6,30.00,WNW,283,6.0,9.0,36,0.00,,,0.00,Wunderground v.1.15,2013-04-03 01:35:00,
2013-04-02 21:40:00,38.1,13.5,30.00,West,280,7.0,7.0,36,0.00,,,0.00,Wunderground v.1.15,2013-04-03 01:40:00,
2013-04-02 21:45:00,38.0,13.4,30.00,West,274,7.0,7.0,36,0.00,,,0.00,Wunderground v.1.15,2013-04-03 01:45:00,
2013-04-02 21:55:00,37.8,13.8,30.01,WNW,290,5.0,6.0,37,0.00,,,0.00,Wunderground v.1.15,2013-04-03 01:55:00,
2013-04-02 22:00:00,37.7,14.3,30.00,West,281,5.0,5.0,38,0.00,,,0.00,Wunderground v.1.15,2013-04-03 02:00:00,
2013-04-02 22:05:00,37.4,14.1,30.00,West,270,4.0,5.0,38,0.00,,,0.00,Wunderground v.1.15,2013-04-03 02:05:00,
2013-04-02 22:10:00,37.3,14.0,30.00,WNW,284,4.0,8.0,38,0.00,,,0.00,Wunderground v.1.15,2013-04-03 02:10:00,
2013-04-02 22:15:00,37.3,14.0,30.01,WSW,253,5.0,8.0,38,0.00,,,0.00,Wunderground v.1.15,2013-04-03 02:15:00,
2013-04-02 22:20:00,37.3,14.0,30.01,WSW,253,5.0,5.0,38,0.00,,,0.00,Wunderground v.1.15,2013-04-03 02:20:00,
2013-04-02 22:30:00,37.2,14.5,30.01,SW,236,6.0,6.0,39,0.00,,,0.00,Wunderground v.1.15,2013-04-03 02:30:00,
2013-04-02 22:35:00,37.2,13.9,30.01,West,273,6.0,6.0,38,0.00,,,0.00,Wunderground v.1.15,2013-04-03 02:35:00,
2013-04-02 22:45:00,37.1,14.4,30.01,WNW,288,5.0,8.0,39,0.00,,,0.00,Wunderground v.1.15,2013-04-03 02:45:00,
2013-04-02 22:50:00,37.0,14.9,30.01,West,273,5.0,5.0,40,0.00,,,0.00,Wunderground v.1.15,2013-04-03 02:50:00,
2013-04-02 22:55:00,36.8,14.7,30.01,WSW,251,5.0,5.0,40,0.00,,,0.00,Wunderground v.1.15,2013-04-03 02:55:00,
2013-04-02 23:00:00,36.7,14.6,30.01,WNW,297,4.0,4.0,40,0.00,,,0.00,Wunderground v.1.15,2013-04-03 03:00:00,
2013-04-02 23:05:00,36.6,14.5,30.01,WSW,240,4.0,5.0,40,0.00,,,0.00,Wunderground v.1.15,2013-04-03 03:05:00,
2013-04-02 23:15:00,36.5,14.4,30.01,NW,310,4.0,6.0,40,0.00,,,0.00,Wunderground v.1.15,2013-04-03 03:15:00,
2013-04-02 23:20:00,36.4,14.3,30.01,West,269,4.0,4.0,40,0.00,,,0.00,Wunderground v.1.15,2013-04-03 03:20:00,
2013-04-02 23:25:00,36.3,14.3,30.01,WNW,291,3.0,4.0,40,0.00,,,0.00,Wunderground v.1.15,2013-04-03 03:25:00,
2013-04-02 23:30:00,36.2,14.7,30.01,WNW,297,4.0,5.0,41,0.00,,,0.00,Wunderground v.1.15,2013-04-03 03:30:00,
2013-04-02 23:35:00,36.3,14.8,30.01,WSW,241,4.0,5.0,41,0.00,,,0.00,Wunderground v.1.15,2013-04-03 03:35:00,
2013-04-02 23:45:00,36.3,14.3,30.01,WSW,252,5.0,5.0,40,0.00,,,0.00,Wunderground v.1.15,2013-04-03 03:45:00,
2013-04-02 23:50:00,36.2,14.7,30.01,WNW,291,5.0,5.0,41,0.00,,,0.00,Wunderground v.1.15,2013-04-03 03:50:00,
2013-04-02 23:55:00,36.2,14.7,30.01,WSW,258,5.0,5.0,41,0.00,,,0.00,Wunderground v.1.15,2013-04-03 03:55:00,